Terminal Aerodrome Forecast
Issued by NWS Mt. Holly, NJ

Home | Current Version | Previous Version | Text Only | Print | Product List | Glossary On
Versions: 1 2 3 4 5 6 7 8 9 10 11 12 13 14 15 16 17 18 19 20 21 22 23 24 25 26 27 28
000
FTUS41 KPHI 291914 AAA
TAFTTN
TAF AMD
KTTN 291914Z 2919/3018 08010KT P6SM OVC030
     FM292100 11009KT P6SM OVC025
     FM300000 10009KT 6SM BR OVC012
      TEMPO 3000/3004 4SM -SHRA BR BKN008
     FM301200 03006KT 6SM BR OVC035
     FM301500 07006KT P6SM SCT040 SCT200=

USA.gov is the U.S. government's official web portal to all federal, state and local government web resources and services.